sensor_id;sensor_type;location;lat;lon;timestamp;P1;durP1;ratioP1;P2;durP2;ratioP2
20527;SDS011;23612;50.894;10.700;2024-01-10T00:01:49;79.20;;;28.80;;
20527;SDS011;23612;50.894;10.700;2024-01-10T00:04:15;88.27;;;31.13;;
20527;SDS011;23612;50.894;10.700;2024-01-10T00:06:41;88.50;;;31.10;;
20527;SDS011;23612;50.894;10.700;2024-01-10T00:09:07;84.20;;;30.23;;
20527;SDS011;23612;50.894;10.700;2024-01-10T00:11:33;88.80;;;30.83;;
20527;SDS011;23612;50.894;10.700;2024-01-10T00:13:59;90.80;;;30.93;;
20527;SDS011;23612;50.894;10.700;2024-01-10T00:16:28;84.53;;;30.73;;
20527;SDS011;23612;50.894;10.700;2024-01-10T00:18:53;87.87;;;31.17;;
20527;SDS011;23612;50.894;10.700;2024-01-10T00:21:19;81.80;;;31.03;;
20527;SDS011;23612;50.894;10.700;2024-01-10T00:23:44;89.97;;;31.40;;
20527;SDS011;23612;50.894;10.700;2024-01-10T00:26:10;91.33;;;32.03;;
20527;SDS011;23612;50.894;10.700;2024-01-10T00:28:35;82.57;;;29.97;;
20527;SDS011;23612;50.894;10.700;2024-01-10T00:31:01;78.40;;;29.30;;
20527;SDS011;23612;50.894;10.700;2024-01-10T00:33:26;75.53;;;29.70;;
20527;SDS011;23612;50.894;10.700;2024-01-10T00:35:52;86.87;;;30.70;;
20527;SDS011;23612;50.894;10.700;2024-01-10T00:38:17;93.10;;;30.90;;
20527;SDS011;23612;50.894;10.700;2024-01-10T00:40:43;87.70;;;31.03;;
20527;SDS011;23612;50.894;10.700;2024-01-10T00:43:08;95.97;;;33.63;;
20527;SDS011;23612;50.894;10.700;2024-01-10T00:45:34;99.23;;;31.73;;
20527;SDS011;23612;50.894;10.700;2024-01-10T00:47:59;88.40;;;31.97;;
20527;SDS011;23612;50.894;10.700;2024-01-10T00:50:25;83.53;;;31.13;;
20527;SDS011;23612;50.894;10.700;2024-01-10T00:52:50;85.97;;;32.70;;
20527;SDS011;23612;50.894;10.700;2024-01-10T00:55:16;97.30;;;33.77;;
20527;SDS011;23612;50.894;10.700;2024-01-10T00:57:41;88.50;;;33.20;;
20527;SDS011;23612;50.894;10.700;2024-01-10T01:00:07;84.23;;;31.57;;
20527;SDS011;23612;50.894;10.700;2024-01-10T01:02:34;95.77;;;33.13;;
20527;SDS011;23612;50.894;10.700;2024-01-10T01:05:00;89.83;;;33.17;;
20527;SDS011;23612;50.894;10.700;2024-01-10T01:07:26;96.07;;;34.00;;
20527;SDS011;23612;50.894;10.700;2024-01-10T01:09:51;100.10;;;35.83;;
20527;SDS011;23612;50.894;10.700;2024-01-10T01:12:17;95.67;;;35.90;;
20527;SDS011;23612;50.894;10.700;2024-01-10T01:14:42;106.97;;;35.30;;
20527;SDS011;23612;50.894;10.700;2024-01-10T01:17:08;101.03;;;35.23;;
20527;SDS011;23612;50.894;10.700;2024-01-10T01:19:33;92.07;;;33.53;;
20527;SDS011;23612;50.894;10.700;2024-01-10T01:21:59;95.33;;;36.10;;
20527;SDS011;23612;50.894;10.700;2024-01-10T01:24:24;104.10;;;35.00;;
20527;SDS011;23612;50.894;10.700;2024-01-10T01:26:50;97.47;;;34.83;;
20527;SDS011;23612;50.894;10.700;2024-01-10T01:29:15;102.07;;;35.33;;
20527;SDS011;23612;50.894;10.700;2024-01-10T01:31:41;90.07;;;31.87;;
20527;SDS011;23612;50.894;10.700;2024-01-10T01:34:06;98.23;;;34.77;;
20527;SDS011;23612;50.894;10.700;2024-01-10T01:36:32;102.57;;;33.33;;
20527;SDS011;23612;50.894;10.700;2024-01-10T01:38:57;96.90;;;33.63;;
20527;SDS011;23612;50.894;10.700;2024-01-10T01:41:23;103.27;;;33.73;;
20527;SDS011;23612;50.894;10.700;2024-01-10T01:43:48;96.97;;;34.23;;
20527;SDS011;23612;50.894;10.700;2024-01-10T01:46:14;98.13;;;33.33;;
20527;SDS011;23612;50.894;10.700;2024-01-10T01:48:40;100.33;;;33.90;;
20527;SDS011;23612;50.894;10.700;2024-01-10T01:51:07;94.27;;;32.53;;
20527;SDS011;23612;50.894;10.700;2024-01-10T01:53:34;107.40;;;34.23;;
20527;SDS011;23612;50.894;10.700;2024-01-10T01:56:02;92.90;;;32.57;;
20527;SDS011;23612;50.894;10.700;2024-01-10T01:58:31;101.13;;;35.00;;
20527;SDS011;23612;50.894;10.700;2024-01-10T02:00:57;91.53;;;31.83;;
20527;SDS011;23612;50.894;10.700;2024-01-10T02:03:24;94.87;;;35.37;;
20527;SDS011;23612;50.894;10.700;2024-01-10T02:05:51;97.63;;;34.93;;
20527;SDS011;23612;50.894;10.700;2024-01-10T02:08:17;95.17;;;34.97;;
20527;SDS011;23612;50.894;10.700;2024-01-10T02:10:42;95.40;;;34.70;;
20527;SDS011;23612;50.894;10.700;2024-01-10T02:13:08;100.77;;;33.83;;
20527;SDS011;23612;50.894;10.700;2024-01-10T02:15:35;102.87;;;34.87;;
20527;SDS011;23612;50.894;10.700;2024-01-10T02:18:02;107.00;;;35.87;;
20527;SDS011;23612;50.894;10.700;2024-01-10T02:20:28;94.60;;;33.07;;
20527;SDS011;23612;50.894;10.700;2024-01-10T02:22:53;99.33;;;35.20;;
20527;SDS011;23612;50.894;10.700;2024-01-10T02:25:18;93.97;;;34.40;;
20527;SDS011;23612;50.894;10.700;2024-01-10T02:27:44;107.90;;;36.57;;
20527;SDS011;23612;50.894;10.700;2024-01-10T02:30:09;99.97;;;34.57;;
20527;SDS011;23612;50.894;10.700;2024-01-10T02:32:36;103.27;;;35.07;;
20527;SDS011;23612;50.894;10.700;2024-01-10T02:35:02;101.00;;;35.07;;
20527;SDS011;23612;50.894;10.700;2024-01-10T02:37:28;103.47;;;34.87;;
20527;SDS011;23612;50.894;10.700;2024-01-10T02:39:53;103.77;;;36.47;;
20527;SDS011;23612;50.894;10.700;2024-01-10T02:42:19;96.07;;;34.60;;
20527;SDS011;23612;50.894;10.700;2024-01-10T02:44:44;98.93;;;35.20;;
20527;SDS011;23612;50.894;10.700;2024-01-10T02:47:10;95.87;;;35.70;;
20527;SDS011;23612;50.894;10.700;2024-01-10T02:49:36;94.77;;;33.67;;
20527;SDS011;23612;50.894;10.700;2024-01-10T02:52:02;105.90;;;35.90;;
20527;SDS011;23612;50.894;10.700;2024-01-10T02:54:28;100.80;;;36.57;;
20527;SDS011;23612;50.894;10.700;2024-01-10T02:56:53;104.67;;;37.13;;
20527;SDS011;23612;50.894;10.700;2024-01-10T02:59:18;97.87;;;34.73;;
20527;SDS011;23612;50.894;10.700;2024-01-10T03:01:44;95.43;;;36.70;;
20527;SDS011;23612;50.894;10.700;2024-01-10T03:04:09;99.07;;;35.07;;
20527;SDS011;23612;50.894;10.700;2024-01-10T03:06:35;106.17;;;36.93;;
20527;SDS011;23612;50.894;10.700;2024-01-10T03:09:01;102.03;;;36.73;;
20527;SDS011;23612;50.894;10.700;2024-01-10T03:11:27;95.20;;;35.57;;
20527;SDS011;23612;50.894;10.700;2024-01-10T03:14:02;103.40;;;35.93;;
20527;SDS011;23612;50.894;10.700;2024-01-10T03:16:31;99.97;;;36.03;;
20527;SDS011;23612;50.894;10.700;2024-01-10T03:18:57;106.97;;;36.77;;
20527;SDS011;23612;50.894;10.700;2024-01-10T03:21:22;98.50;;;34.03;;
20527;SDS011;23612;50.894;10.700;2024-01-10T03:23:59;102.60;;;35.93;;
20527;SDS011;23612;50.894;10.700;2024-01-10T03:26:26;105.60;;;37.20;;
20527;SDS011;23612;50.894;10.700;2024-01-10T03:28:52;98.00;;;34.70;;
20527;SDS011;23612;50.894;10.700;2024-01-10T03:31:19;96.73;;;35.20;;
20527;SDS011;23612;50.894;10.700;2024-01-10T03:33:44;113.63;;;38.67;;
20527;SDS011;23612;50.894;10.700;2024-01-10T03:36:14;103.63;;;35.07;;
20527;SDS011;23612;50.894;10.700;2024-01-10T03:38:41;97.20;;;34.80;;
20527;SDS011;23612;50.894;10.700;2024-01-10T03:41:07;96.73;;;35.00;;
20527;SDS011;23612;50.894;10.700;2024-01-10T03:43:37;110.80;;;36.10;;
20527;SDS011;23612;50.894;10.700;2024-01-10T03:46:02;103.37;;;36.80;;
20527;SDS011;23612;50.894;10.700;2024-01-10T03:48:28;101.27;;;35.60;;
20527;SDS011;23612;50.894;10.700;2024-01-10T03:50:53;110.77;;;36.13;;
20527;SDS011;23612;50.894;10.700;2024-01-10T03:53:19;109.23;;;35.63;;
20527;SDS011;23612;50.894;10.700;2024-01-10T03:55:45;110.50;;;36.57;;
20527;SDS011;23612;50.894;10.700;2024-01-10T03:58:10;107.50;;;37.20;;
20527;SDS011;23612;50.894;10.700;2024-01-10T04:00:35;97.10;;;36.53;;
20527;SDS011;23612;50.894;10.700;2024-01-10T04:03:01;95.10;;;34.90;;
20527;SDS011;23612;50.894;10.700;2024-01-10T04:05:27;100.67;;;35.50;;
20527;SDS011;23612;50.894;10.700;2024-01-10T04:07:53;100.80;;;35.90;;
20527;SDS011;23612;50.894;10.700;2024-01-10T04:10:18;101.00;;;36.47;;
20527;SDS011;23612;50.894;10.700;2024-01-10T04:12:44;115.37;;;37.47;;
20527;SDS011;23612;50.894;10.700;2024-01-10T04:15:10;98.20;;;35.00;;
20527;SDS011;23612;50.894;10.700;2024-01-10T04:17:36;105.50;;;36.93;;
20527;SDS011;23612;50.894;10.700;2024-01-10T04:20:02;101.33;;;33.80;;
20527;SDS011;23612;50.894;10.700;2024-01-10T04:22:29;126.17;;;37.93;;
20527;SDS011;23612;50.894;10.700;2024-01-10T04:24:56;104.17;;;36.43;;
20527;SDS011;23612;50.894;10.700;2024-01-10T04:27:22;109.27;;;36.20;;
20527;SDS011;23612;50.894;10.700;2024-01-10T04:29:48;98.90;;;36.10;;
20527;SDS011;23612;50.894;10.700;2024-01-10T04:32:13;96.03;;;35.50;;
20527;SDS011;23612;50.894;10.700;2024-01-10T04:34:39;116.17;;;37.87;;
20527;SDS011;23612;50.894;10.700;2024-01-10T04:37:05;95.67;;;34.67;;
20527;SDS011;23612;50.894;10.700;2024-01-10T04:39:31;114.57;;;35.97;;
20527;SDS011;23612;50.894;10.700;2024-01-10T04:41:57;110.43;;;37.20;;
20527;SDS011;23612;50.894;10.700;2024-01-10T04:44:23;97.70;;;35.40;;
20527;SDS011;23612;50.894;10.700;2024-01-10T04:46:49;107.70;;;37.57;;
20527;SDS011;23612;50.894;10.700;2024-01-10T04:49:14;111.50;;;37.07;;
20527;SDS011;23612;50.894;10.700;2024-01-10T04:51:40;102.80;;;36.17;;
20527;SDS011;23612;50.894;10.700;2024-01-10T04:54:05;97.30;;;35.97;;
20527;SDS011;23612;50.894;10.700;2024-01-10T04:56:31;101.83;;;35.40;;
20527;SDS011;23612;50.894;10.700;2024-01-10T04:58:56;101.97;;;37.80;;
20527;SDS011;23612;50.894;10.700;2024-01-10T05:01:22;96.93;;;36.10;;
20527;SDS011;23612;50.894;10.700;2024-01-10T05:03:48;100.77;;;36.10;;
20527;SDS011;23612;50.894;10.700;2024-01-10T05:06:13;115.53;;;38.27;;
20527;SDS011;23612;50.894;10.700;2024-01-10T05:08:39;102.60;;;36.53;;
20527;SDS011;23612;50.894;10.700;2024-01-10T05:11:04;102.73;;;38.73;;
20527;SDS011;23612;50.894;10.700;2024-01-10T05:13:30;113.70;;;37.67;;
20527;SDS011;23612;50.894;10.700;2024-01-10T05:15:55;107.30;;;37.33;;
20527;SDS011;23612;50.894;10.700;2024-01-10T05:18:21;109.07;;;37.97;;
20527;SDS011;23612;50.894;10.700;2024-01-10T05:20:47;111.30;;;38.77;;
20527;SDS011;23612;50.894;10.700;2024-01-10T05:23:12;99.97;;;36.73;;
20527;SDS011;23612;50.894;10.700;2024-01-10T05:25:38;118.13;;;39.87;;
20527;SDS011;23612;50.894;10.700;2024-01-10T05:28:03;105.57;;;34.93;;
20527;SDS011;23612;50.894;10.700;2024-01-10T05:30:29;119.43;;;37.17;;
20527;SDS011;23612;50.894;10.700;2024-01-10T05:32:56;114.47;;;37.23;;
20527;SDS011;23612;50.894;10.700;2024-01-10T05:35:23;99.87;;;35.20;;
20527;SDS011;23612;50.894;10.700;2024-01-10T05:37:50;111.70;;;36.67;;
20527;SDS011;23612;50.894;10.700;2024-01-10T05:40:16;108.83;;;36.30;;
20527;SDS011;23612;50.894;10.700;2024-01-10T05:42:41;112.13;;;38.77;;
20527;SDS011;23612;50.894;10.700;2024-01-10T05:45:07;109.07;;;37.23;;
20527;SDS011;23612;50.894;10.700;2024-01-10T05:47:33;99.20;;;36.20;;
20527;SDS011;23612;50.894;10.700;2024-01-10T05:49:59;102.43;;;36.80;;
20527;SDS011;23612;50.894;10.700;2024-01-10T05:52:25;105.47;;;36.17;;
20527;SDS011;23612;50.894;10.700;2024-01-10T05:54:51;103.13;;;37.67;;
20527;SDS011;23612;50.894;10.700;2024-01-10T05:57:17;104.13;;;37.13;;
20527;SDS011;23612;50.894;10.700;2024-01-10T05:59:42;105.93;;;38.13;;
20527;SDS011;23612;50.894;10.700;2024-01-10T06:02:08;98.20;;;36.53;;
20527;SDS011;23612;50.894;10.700;2024-01-10T06:04:33;108.40;;;38.47;;
20527;SDS011;23612;50.894;10.700;2024-01-10T06:06:58;104.03;;;37.77;;
20527;SDS011;23612;50.894;10.700;2024-01-10T06:09:24;105.57;;;38.70;;
20527;SDS011;23612;50.894;10.700;2024-01-10T06:11:49;105.03;;;36.53;;
20527;SDS011;23612;50.894;10.700;2024-01-10T06:14:15;109.00;;;38.63;;
20527;SDS011;23612;50.894;10.700;2024-01-10T06:16:41;107.13;;;36.57;;
20527;SDS011;23612;50.894;10.700;2024-01-10T06:19:07;104.27;;;37.57;;
20527;SDS011;23612;50.894;10.700;2024-01-10T06:21:33;103.83;;;37.10;;
20527;SDS011;23612;50.894;10.700;2024-01-10T06:23:58;112.83;;;37.93;;
20527;SDS011;23612;50.894;10.700;2024-01-10T06:26:24;108.30;;;38.70;;
20527;SDS011;23612;50.894;10.700;2024-01-10T06:28:49;107.90;;;38.90;;
20527;SDS011;23612;50.894;10.700;2024-01-10T06:31:15;107.00;;;37.27;;
20527;SDS011;23612;50.894;10.700;2024-01-10T06:33:40;112.43;;;38.67;;
20527;SDS011;23612;50.894;10.700;2024-01-10T06:36:06;108.40;;;36.87;;
20527;SDS011;23612;50.894;10.700;2024-01-10T06:38:32;101.57;;;36.57;;
20527;SDS011;23612;50.894;10.700;2024-01-10T06:40:58;110.87;;;36.13;;
20527;SDS011;23612;50.894;10.700;2024-01-10T06:43:23;109.00;;;36.17;;
20527;SDS011;23612;50.894;10.700;2024-01-10T06:45:48;108.30;;;36.23;;
20527;SDS011;23612;50.894;10.700;2024-01-10T06:48:14;102.33;;;36.23;;
20527;SDS011;23612;50.894;10.700;2024-01-10T06:50:40;101.17;;;35.83;;
20527;SDS011;23612;50.894;10.700;2024-01-10T06:53:05;99.77;;;35.60;;
20527;SDS011;23612;50.894;10.700;2024-01-10T06:55:31;115.53;;;35.67;;
20527;SDS011;23612;50.894;10.700;2024-01-10T06:57:57;100.97;;;36.63;;
20527;SDS011;23612;50.894;10.700;2024-01-10T07:00:22;99.70;;;34.73;;
20527;SDS011;23612;50.894;10.700;2024-01-10T07:02:48;101.20;;;35.83;;
20527;SDS011;23612;50.894;10.700;2024-01-10T07:05:14;115.60;;;39.03;;
20527;SDS011;23612;50.894;10.700;2024-01-10T07:07:40;95.33;;;36.47;;
20527;SDS011;23612;50.894;10.700;2024-01-10T07:10:06;122.13;;;50.30;;
20527;SDS011;23612;50.894;10.700;2024-01-10T07:12:33;116.30;;;40.43;;
20527;SDS011;23612;50.894;10.700;2024-01-10T07:14:59;116.53;;;39.80;;
20527;SDS011;23612;50.894;10.700;2024-01-10T07:17:24;106.00;;;38.57;;
20527;SDS011;23612;50.894;10.700;2024-01-10T07:19:50;108.13;;;37.07;;
20527;SDS011;23612;50.894;10.700;2024-01-10T07:22:15;115.07;;;37.03;;
20527;SDS011;23612;50.894;10.700;2024-01-10T07:24:42;100.63;;;35.83;;
20527;SDS011;23612;50.894;10.700;2024-01-10T07:27:08;91.07;;;35.13;;
20527;SDS011;23612;50.894;10.700;2024-01-10T07:29:34;105.63;;;36.77;;
20527;SDS011;23612;50.894;10.700;2024-01-10T07:32:00;106.47;;;36.47;;
20527;SDS011;23612;50.894;10.700;2024-01-10T07:34:25;101.50;;;36.23;;
20527;SDS011;23612;50.894;10.700;2024-01-10T07:36:51;100.83;;;35.30;;
20527;SDS011;23612;50.894;10.700;2024-01-10T07:39:19;98.53;;;35.53;;
20527;SDS011;23612;50.894;10.700;2024-01-10T07:41:44;111.30;;;36.37;;
20527;SDS011;23612;50.894;10.700;2024-01-10T07:44:10;102.20;;;35.20;;
20527;SDS011;23612;50.894;10.700;2024-01-10T07:46:35;97.83;;;34.70;;
20527;SDS011;23612;50.894;10.700;2024-01-10T07:49:04;105.47;;;35.23;;
20527;SDS011;23612;50.894;10.700;2024-01-10T07:51:30;99.47;;;36.10;;
20527;SDS011;23612;50.894;10.700;2024-01-10T07:53:55;101.93;;;34.53;;
20527;SDS011;23612;50.894;10.700;2024-01-10T07:56:21;96.50;;;34.83;;
20527;SDS011;23612;50.894;10.700;2024-01-10T07:58:47;107.07;;;34.90;;
20527;SDS011;23612;50.894;10.700;2024-01-10T08:01:14;95.17;;;34.47;;
20527;SDS011;23612;50.894;10.700;2024-01-10T08:03:40;98.07;;;33.70;;
20527;SDS011;23612;50.894;10.700;2024-01-10T08:06:05;101.00;;;35.80;;
20527;SDS011;23612;50.894;10.700;2024-01-10T08:08:31;106.73;;;35.77;;
20527;SDS011;23612;50.894;10.700;2024-01-10T08:10:57;103.87;;;38.33;;
20527;SDS011;23612;50.894;10.700;2024-01-10T08:13:22;103.23;;;35.47;;
20527;SDS011;23612;50.894;10.700;2024-01-10T08:15:48;102.13;;;36.23;;
20527;SDS011;23612;50.894;10.700;2024-01-10T08:18:13;107.03;;;38.83;;
20527;SDS011;23612;50.894;10.700;2024-01-10T08:20:39;101.87;;;36.97;;
20527;SDS011;23612;50.894;10.700;2024-01-10T08:23:05;104.10;;;38.03;;
20527;SDS011;23612;50.894;10.700;2024-01-10T08:25:30;112.43;;;38.20;;
20527;SDS011;23612;50.894;10.700;2024-01-10T08:27:56;107.83;;;39.53;;
20527;SDS011;23612;50.894;10.700;2024-01-10T08:30:22;115.50;;;42.13;;
20527;SDS011;23612;50.894;10.700;2024-01-10T08:32:51;105.10;;;39.67;;
20527;SDS011;23612;50.894;10.700;2024-01-10T08:35:17;102.97;;;37.87;;
20527;SDS011;23612;50.894;10.700;2024-01-10T08:37:44;105.03;;;37.23;;
20527;SDS011;23612;50.894;10.700;2024-01-10T08:40:10;112.10;;;40.03;;
20527;SDS011;23612;50.894;10.700;2024-01-10T08:42:37;103.53;;;37.77;;
20527;SDS011;23612;50.894;10.700;2024-01-10T08:45:03;106.37;;;38.80;;
20527;SDS011;23612;50.894;10.700;2024-01-10T08:47:29;104.13;;;38.93;;
20527;SDS011;23612;50.894;10.700;2024-01-10T08:49:57;108.47;;;40.17;;
20527;SDS011;23612;50.894;10.700;2024-01-10T08:52:23;102.60;;;39.43;;
20527;SDS011;23612;50.894;10.700;2024-01-10T08:54:49;108.50;;;38.30;;
20527;SDS011;23612;50.894;10.700;2024-01-10T08:57:14;111.60;;;40.47;;
20527;SDS011;23612;50.894;10.700;2024-01-10T08:59:42;105.20;;;39.00;;
20527;SDS011;23612;50.894;10.700;2024-01-10T09:02:08;107.87;;;41.67;;
20527;SDS011;23612;50.894;10.700;2024-01-10T09:04:33;116.47;;;42.60;;
20527;SDS011;23612;50.894;10.700;2024-01-10T09:06:59;106.37;;;42.30;;
20527;SDS011;23612;50.894;10.700;2024-01-10T09:09:24;112.67;;;42.77;;
20527;SDS011;23612;50.894;10.700;2024-01-10T09:11:50;121.47;;;41.57;;
20527;SDS011;23612;50.894;10.700;2024-01-10T09:14:15;98.03;;;39.97;;
20527;SDS011;23612;50.894;10.700;2024-01-10T09:16:41;107.47;;;41.07;;
20527;SDS011;23612;50.894;10.700;2024-01-10T09:19:06;102.70;;;41.60;;
20527;SDS011;23612;50.894;10.700;2024-01-10T09:21:32;90.67;;;40.10;;
20527;SDS011;23612;50.894;10.700;2024-01-10T09:23:58;97.53;;;40.13;;
20527;SDS011;23612;50.894;10.700;2024-01-10T09:26:23;98.13;;;43.37;;
20527;SDS011;23612;50.894;10.700;2024-01-10T09:28:49;118.10;;;40.90;;
20527;SDS011;23612;50.894;10.700;2024-01-10T09:31:14;91.73;;;41.27;;
20527;SDS011;23612;50.894;10.700;2024-01-10T09:33:40;89.93;;;42.92;;
20527;SDS011;23612;50.894;10.700;2024-01-10T09:36:06;100.28;;;42.95;;
20527;SDS011;23612;50.894;10.700;2024-01-10T09:38:35;90.05;;;44.72;;
20527;SDS011;23612;50.894;10.700;2024-01-10T09:41:02;94.25;;;45.60;;
20527;SDS011;23612;50.894;10.700;2024-01-10T09:43:29;102.25;;;45.85;;
20527;SDS011;23612;50.894;10.700;2024-01-10T09:45:55;96.22;;;45.33;;
20527;SDS011;23612;50.894;10.700;2024-01-10T09:48:24;113.15;;;53.80;;
20527;SDS011;23612;50.894;10.700;2024-01-10T09:50:50;95.93;;;45.88;;
20527;SDS011;23612;50.894;10.700;2024-01-10T09:53:26;96.43;;;46.08;;
20527;SDS011;23612;50.894;10.700;2024-01-10T09:55:52;103.97;;;46.80;;
20527;SDS011;23612;50.894;10.700;2024-01-10T09:58:22;104.70;;;48.03;;
20527;SDS011;23612;50.894;10.700;2024-01-10T10:00:50;104.03;;;45.93;;
20527;SDS011;23612;50.894;10.700;2024-01-10T10:03:15;107.27;;;46.67;;
20527;SDS011;23612;50.894;10.700;2024-01-10T10:05:43;104.50;;;46.53;;
20527;SDS011;23612;50.894;10.700;2024-01-10T10:08:10;108.23;;;46.43;;
20527;SDS011;23612;50.894;10.700;2024-01-10T10:10:37;97.27;;;42.50;;
20527;SDS011;23612;50.894;10.700;2024-01-10T10:13:08;111.93;;;46.50;;
20527;SDS011;23612;50.894;10.700;2024-01-10T10:15:36;110.63;;;46.87;;
20527;SDS011;23612;50.894;10.700;2024-01-10T10:18:02;118.43;;;46.67;;
20527;SDS011;23612;50.894;10.700;2024-01-10T10:20:28;112.47;;;46.00;;
20527;SDS011;23612;50.894;10.700;2024-01-10T10:23:04;114.57;;;46.57;;
20527;SDS011;23612;50.894;10.700;2024-01-10T10:25:34;113.60;;;45.17;;
20527;SDS011;23612;50.894;10.700;2024-01-10T10:28:08;118.40;;;45.03;;
20527;SDS011;23612;50.894;10.700;2024-01-10T10:30:33;113.97;;;46.40;;
20527;SDS011;23612;50.894;10.700;2024-01-10T10:32:59;117.40;;;45.30;;
20527;SDS011;23612;50.894;10.700;2024-01-10T10:35:26;109.63;;;44.63;;
20527;SDS011;23612;50.894;10.700;2024-01-10T10:37:52;123.03;;;46.47;;
20527;SDS011;23612;50.894;10.700;2024-01-10T10:40:19;117.03;;;45.70;;
20527;SDS011;23612;50.894;10.700;2024-01-10T10:42:45;110.80;;;44.90;;
20527;SDS011;23612;50.894;10.700;2024-01-10T10:45:14;115.67;;;41.60;;
20527;SDS011;23612;50.894;10.700;2024-01-10T10:47:42;109.47;;;41.50;;
20527;SDS011;23612;50.894;10.700;2024-01-10T10:50:12;119.53;;;44.70;;
20527;SDS011;23612;50.894;10.700;2024-01-10T10:52:41;114.30;;;44.03;;
20527;SDS011;23612;50.894;10.700;2024-01-10T10:55:10;121.37;;;44.73;;
20527;SDS011;23612;50.894;10.700;2024-01-10T10:57:37;117.53;;;44.10;;
20527;SDS011;23612;50.894;10.700;2024-01-10T11:00:04;109.43;;;43.80;;
20527;SDS011;23612;50.894;10.700;2024-01-10T11:02:32;113.07;;;44.00;;
20527;SDS011;23612;50.894;10.700;2024-01-10T11:04:57;111.43;;;44.37;;
20527;SDS011;23612;50.894;10.700;2024-01-10T11:07:24;113.13;;;43.47;;
20527;SDS011;23612;50.894;10.700;2024-01-10T11:09:50;110.83;;;46.57;;
20527;SDS011;23612;50.894;10.700;2024-01-10T11:12:43;111.23;;;45.10;;
20527;SDS011;23612;50.894;10.700;2024-01-10T11:15:23;109.27;;;42.07;;
20527;SDS011;23612;50.894;10.700;2024-01-10T11:23:38;110.57;;;43.70;;
20527;SDS011;23612;50.894;10.700;2024-01-10T11:26:14;112.67;;;45.77;;
20527;SDS011;23612;50.894;10.700;2024-01-10T11:28:40;120.93;;;45.90;;
20527;SDS011;23612;50.894;10.700;2024-01-10T11:31:07;113.00;;;42.90;;
20527;SDS011;23612;50.894;10.700;2024-01-10T11:33:34;115.27;;;44.10;;
20527;SDS011;23612;50.894;10.700;2024-01-10T11:36:15;112.33;;;44.37;;
20527;SDS011;23612;50.894;10.700;2024-01-10T11:38:48;117.00;;;48.07;;
20527;SDS011;23612;50.894;10.700;2024-01-10T11:46:45;117.47;;;46.33;;
20527;SDS011;23612;50.894;10.700;2024-01-10T11:49:12;114.03;;;45.83;;
20527;SDS011;23612;50.894;10.700;2024-01-10T11:51:43;122.37;;;46.80;;
20527;SDS011;23612;50.894;10.700;2024-01-10T11:54:09;113.33;;;43.93;;
20527;SDS011;23612;50.894;10.700;2024-01-10T11:59:08;121.53;;;45.47;;
20527;SDS011;23612;50.894;10.700;2024-01-10T12:01:38;121.60;;;45.57;;
20527;SDS011;23612;50.894;10.700;2024-01-10T12:04:05;113.83;;;45.20;;
20527;SDS011;23612;50.894;10.700;2024-01-10T12:06:31;114.77;;;43.83;;
20527;SDS011;23612;50.894;10.700;2024-01-10T12:08:57;134.27;;;46.67;;
20527;SDS011;23612;50.894;10.700;2024-01-10T12:11:24;114.17;;;48.07;;
20527;SDS011;23612;50.894;10.700;2024-01-10T12:13:50;131.10;;;47.27;;
20527;SDS011;23612;50.894;10.700;2024-01-10T12:16:15;113.60;;;43.97;;
20527;SDS011;23612;50.894;10.700;2024-01-10T12:18:42;113.20;;;46.27;;
20527;SDS011;23612;50.894;10.700;2024-01-10T12:21:08;111.83;;;45.97;;
20527;SDS011;23612;50.894;10.700;2024-01-10T12:23:34;115.40;;;43.63;;
20527;SDS011;23612;50.894;10.700;2024-01-10T12:26:04;123.28;;;57.28;;
20527;SDS011;23612;50.894;10.700;2024-01-10T12:28:39;117.97;;;47.60;;
20527;SDS011;23612;50.894;10.700;2024-01-10T12:31:05;112.77;;;46.60;;
20527;SDS011;23612;50.894;10.700;2024-01-10T12:33:37;113.17;;;44.97;;
20527;SDS011;23612;50.894;10.700;2024-01-10T12:36:08;117.60;;;45.77;;
20527;SDS011;23612;50.894;10.700;2024-01-10T12:38:34;116.87;;;45.37;;
20527;SDS011;23612;50.894;10.700;2024-01-10T12:41:01;118.57;;;45.80;;
20527;SDS011;23612;50.894;10.700;2024-01-10T12:43:27;129.57;;;47.70;;
20527;SDS011;23612;50.894;10.700;2024-01-10T12:46:02;122.13;;;46.43;;
20527;SDS011;23612;50.894;10.700;2024-01-10T12:48:31;112.87;;;44.93;;
20527;SDS011;23612;50.894;10.700;2024-01-10T12:50:58;119.07;;;44.97;;
20527;SDS011;23612;50.894;10.700;2024-01-10T12:53:30;109.30;;;44.53;;
20527;SDS011;23612;50.894;10.700;2024-01-10T12:55:57;98.50;;;42.97;;
20527;SDS011;23612;50.894;10.700;2024-01-10T12:58:22;99.87;;;44.53;;
20527;SDS011;23612;50.894;10.700;2024-01-10T13:00:48;104.27;;;42.17;;
20527;SDS011;23612;50.894;10.700;2024-01-10T13:03:13;98.57;;;43.37;;
20527;SDS011;23612;50.894;10.700;2024-01-10T13:05:39;101.07;;;43.93;;
20527;SDS011;23612;50.894;10.700;2024-01-10T13:08:05;96.60;;;45.47;;
20527;SDS011;23612;50.894;10.700;2024-01-10T13:10:31;90.63;;;42.43;;
20527;SDS011;23612;50.894;10.700;2024-01-10T13:12:57;89.87;;;42.87;;
20527;SDS011;23612;50.894;10.700;2024-01-10T13:15:22;101.53;;;44.20;;
20527;SDS011;23612;50.894;10.700;2024-01-10T13:17:47;95.55;;;43.85;;
20527;SDS011;23612;50.894;10.700;2024-01-10T13:20:14;97.20;;;44.38;;
20527;SDS011;23612;50.894;10.700;2024-01-10T13:22:39;96.03;;;43.22;;
20527;SDS011;23612;50.894;10.700;2024-01-10T13:25:05;92.63;;;43.27;;
20527;SDS011;23612;50.894;10.700;2024-01-10T13:27:31;95.30;;;44.25;;
20527;SDS011;23612;50.894;10.700;2024-01-10T13:29:57;95.70;;;42.78;;
20527;SDS011;23612;50.894;10.700;2024-01-10T13:32:22;95.63;;;42.92;;
20527;SDS011;23612;50.894;10.700;2024-01-10T13:34:48;85.50;;;41.87;;
20527;SDS011;23612;50.894;10.700;2024-01-10T13:37:13;94.25;;;43.28;;
20527;SDS011;23612;50.894;10.700;2024-01-10T13:39:41;93.78;;;41.97;;
20527;SDS011;23612;50.894;10.700;2024-01-10T13:42:06;85.07;;;40.95;;
20527;SDS011;23612;50.894;10.700;2024-01-10T13:44:35;92.73;;;42.37;;
20527;SDS011;23612;50.894;10.700;2024-01-10T13:47:01;102.50;;;44.53;;
20527;SDS011;23612;50.894;10.700;2024-01-10T13:49:28;97.47;;;43.33;;
20527;SDS011;23612;50.894;10.700;2024-01-10T13:51:54;100.17;;;44.20;;
20527;SDS011;23612;50.894;10.700;2024-01-10T13:54:19;101.47;;;44.10;;
20527;SDS011;23612;50.894;10.700;2024-01-10T13:56:46;110.90;;;45.93;;
20527;SDS011;23612;50.894;10.700;2024-01-10T13:59:11;106.30;;;46.77;;
20527;SDS011;23612;50.894;10.700;2024-01-10T14:01:37;112.20;;;49.67;;
20527;SDS011;23612;50.894;10.700;2024-01-10T14:04:02;104.50;;;48.10;;
20527;SDS011;23612;50.894;10.700;2024-01-10T14:06:28;109.27;;;49.00;;
20527;SDS011;23612;50.894;10.700;2024-01-10T14:08:54;108.93;;;48.63;;
20527;SDS011;23612;50.894;10.700;2024-01-10T14:11:19;115.27;;;49.27;;